createdAt,value
2018-12-17T00:00:33.126Z,95.50
2018-12-17T00:01:33.116Z,104.70
2018-12-17T00:02:33.103Z,107.50
2018-12-17T00:03:33.096Z,103.50
2018-12-17T00:04:33.084Z,92.80
2018-12-17T00:05:33.078Z,105.40
2018-12-17T00:06:33.064Z,90.80
2018-12-17T00:07:33.059Z,95.30
2018-12-17T00:08:33.054Z,103.60
2018-12-17T00:09:33.038Z,96.40
2018-12-17T00:10:34.287Z,90.90
2018-12-17T00:11:33.019Z,82.40
2018-12-17T00:12:33.009Z,79.60
2018-12-17T00:13:33.002Z,83.80
2018-12-17T00:14:32.987Z,82.40
2018-12-17T00:15:32.980Z,76.30
2018-12-17T00:16:32.968Z,79.70
2018-12-17T00:17:33.012Z,81.10
2018-12-17T00:18:32.949Z,80.40
2018-12-17T00:19:32.941Z,78.50
2018-12-17T00:20:32.940Z,77.00
2018-12-17T00:21:32.924Z,83.60
2018-12-17T00:22:32.909Z,78.10
2018-12-17T00:23:32.911Z,74.70
2018-12-17T00:24:32.891Z,73.70
2018-12-17T00:25:32.883Z,76.00
2018-12-17T00:26:32.881Z,74.10
2018-12-17T00:27:32.867Z,72.90
2018-12-17T00:28:32.854Z,68.70
2018-12-17T00:29:32.847Z,67.80
2018-12-17T00:30:32.832Z,76.00
2018-12-17T00:31:32.824Z,72.50
2018-12-17T00:32:32.813Z,73.70
2018-12-17T00:33:32.814Z,65.50
2018-12-17T00:34:32.793Z,71.20
2018-12-17T00:35:32.790Z,65.90
2018-12-17T00:36:32.775Z,67.50
2018-12-17T00:37:32.766Z,74.40
2018-12-17T00:38:32.766Z,64.00
2018-12-17T00:39:32.746Z,64.10
2018-12-17T00:40:32.742Z,67.60
2018-12-17T00:41:32.728Z,74.40
2018-12-17T00:42:32.714Z,62.50
2018-12-17T00:43:32.711Z,67.80
2018-12-17T00:44:32.697Z,62.40
2018-12-17T00:45:32.694Z,67.80
2018-12-17T00:46:32.691Z,68.50
2018-12-17T00:47:32.675Z,69.60
2018-12-17T00:48:32.655Z,65.40
2018-12-17T00:49:32.948Z,68.60
2018-12-17T00:50:32.635Z,66.10
2018-12-17T00:51:32.630Z,56.10
2018-12-17T00:52:32.616Z,59.10
2018-12-17T00:53:32.615Z,64.80
2018-12-17T00:54:32.596Z,63.00
2018-12-17T00:55:32.596Z,58.20
2018-12-17T00:56:32.576Z,62.50
2018-12-17T00:57:32.569Z,59.50
2018-12-17T00:58:32.556Z,59.80
2018-12-17T00:59:32.558Z,58.50
2018-12-17T01:00:32.536Z,65.60
2018-12-17T01:01:32.530Z,62.00
2018-12-17T01:02:32.516Z,59.40
2018-12-17T01:03:32.510Z,57.30
2018-12-17T01:04:32.500Z,60.60
2018-12-17T01:05:32.507Z,59.40
2018-12-17T01:06:32.476Z,58.80
2018-12-17T01:07:32.469Z,58.80
2018-12-17T01:08:32.457Z,57.50
2018-12-17T01:09:32.459Z,60.10
2018-12-17T01:10:32.448Z,55.20
2018-12-17T01:11:32.442Z,52.80
2018-12-17T01:12:32.416Z,56.80
2018-12-17T01:13:32.409Z,55.80
2018-12-17T01:14:32.395Z,49.30
2018-12-17T01:15:32.397Z,51.00
2018-12-17T01:16:32.391Z,53.60
2018-12-17T01:17:32.368Z,49.80
2018-12-17T01:18:32.355Z,50.30
2018-12-17T01:19:32.349Z,47.20
2018-12-17T01:20:32.342Z,51.90
2018-12-17T01:21:32.329Z,48.70
2018-12-17T01:22:32.315Z,47.90
2018-12-17T01:23:32.307Z,49.80
2018-12-17T01:24:32.296Z,45.80
2018-12-17T01:25:32.327Z,47.10
2018-12-17T01:26:32.281Z,43.70
2018-12-17T01:27:32.278Z,47.50
2018-12-17T01:28:32.255Z,46.60
2018-12-17T01:29:32.247Z,48.20
2018-12-17T01:30:32.241Z,44.80
2018-12-17T01:31:32.241Z,44.40
2018-12-17T01:32:32.214Z,44.80
2018-12-17T01:33:32.206Z,45.10
2018-12-17T01:34:32.193Z,48.30
2018-12-17T01:35:32.186Z,47.60
2018-12-17T01:36:32.174Z,44.10
2018-12-17T01:37:32.166Z,44.10
2018-12-17T01:38:32.153Z,44.90
2018-12-17T01:39:32.169Z,44.20
2018-12-17T01:40:32.135Z,45.60
2018-12-17T01:41:32.134Z,42.50
2018-12-17T01:42:32.113Z,46.80
2018-12-17T01:43:32.105Z,47.80
2018-12-17T01:44:32.111Z,47.90
2018-12-17T01:45:32.085Z,46.60
2018-12-17T01:46:32.074Z,43.10
2018-12-17T01:47:32.073Z,46.10
2018-12-17T01:48:32.064Z,44.00
2018-12-17T01:49:32.046Z,43.40
2018-12-17T01:50:32.044Z,43.80
2018-12-17T01:51:32.043Z,44.00
2018-12-17T01:52:32.013Z,44.60
2018-12-17T01:53:32.006Z,47.10
2018-12-17T01:54:31.993Z,43.60
2018-12-17T01:55:32.136Z,44.50
2018-12-17T01:56:31.986Z,43.20
2018-12-17T01:57:32.000Z,42.10
2018-12-17T01:58:31.961Z,43.00
2018-12-17T01:59:31.950Z,42.60
2018-12-17T02:00:31.934Z,42.40
2018-12-17T02:01:31.926Z,44.70
2018-12-17T02:02:31.913Z,45.50
2018-12-17T02:03:31.907Z,40.50
2018-12-17T02:04:31.907Z,40.80
2018-12-17T02:05:31.887Z,46.00
2018-12-17T02:06:31.874Z,43.40
2018-12-17T02:07:31.867Z,43.30
2018-12-17T02:08:31.865Z,41.70
2018-12-17T02:09:31.863Z,41.60
2018-12-17T02:10:31.850Z,43.90
2018-12-17T02:11:31.826Z,41.30
2018-12-17T02:12:31.815Z,40.30
2018-12-17T02:13:31.809Z,41.40
2018-12-17T02:14:31.794Z,38.00
2018-12-17T02:15:31.798Z,43.10
2018-12-17T02:16:31.775Z,39.00
2018-12-17T02:17:31.769Z,38.80
2018-12-17T02:18:31.756Z,39.70
2018-12-17T02:19:31.764Z,36.40
2018-12-17T02:20:31.742Z,39.80
2018-12-17T02:21:31.737Z,40.00
2018-12-17T02:22:31.717Z,37.30
2018-12-17T02:23:31.705Z,38.60
2018-12-17T02:24:31.697Z,38.60
2018-12-17T02:25:31.692Z,37.50
2018-12-17T02:26:31.677Z,38.00
2018-12-17T02:27:31.665Z,38.20
2018-12-17T02:28:36.156Z,36.80
2018-12-17T02:29:31.648Z,37.30
2018-12-17T02:30:31.642Z,38.70
2018-12-17T02:31:31.640Z,41.40
2018-12-17T02:32:31.618Z,37.60
2018-12-17T02:33:31.619Z,38.10
2018-12-17T02:34:31.597Z,39.80
2018-12-17T02:35:31.599Z,37.10
2018-12-17T02:36:31.591Z,38.20
2018-12-17T02:37:31.564Z,37.60
2018-12-17T02:38:31.555Z,36.20
2018-12-17T02:39:31.544Z,39.00
2018-12-17T02:40:31.536Z,38.30
2018-12-17T02:41:31.523Z,35.60
2018-12-17T02:42:31.532Z,37.80
2018-12-17T02:43:31.504Z,37.10
2018-12-17T02:44:31.495Z,40.30
2018-12-17T02:45:31.499Z,36.10
2018-12-17T02:46:31.474Z,32.30
2018-12-17T02:47:31.462Z,36.60
2018-12-17T02:48:31.454Z,35.70
2018-12-17T02:49:31.442Z,36.90
2018-12-17T02:50:31.449Z,33.30
2018-12-17T02:51:31.421Z,36.30
2018-12-17T02:52:31.414Z,33.30
2018-12-17T02:53:31.401Z,35.70
2018-12-17T02:54:31.394Z,33.00
2018-12-17T02:55:31.386Z,32.40
2018-12-17T02:56:31.373Z,33.20
2018-12-17T02:57:32.481Z,32.70
2018-12-17T02:58:31.354Z,31.30
2018-12-17T02:59:31.341Z,35.60
2018-12-17T03:00:31.338Z,32.10
2018-12-17T03:01:31.435Z,33.00
2018-12-17T03:02:31.335Z,31.90
2018-12-17T03:03:31.302Z,33.60
2018-12-17T03:04:31.294Z,31.30
2018-12-17T03:05:31.295Z,31.40
2018-12-17T03:06:31.275Z,30.60
2018-12-17T03:07:31.281Z,34.90
2018-12-17T03:08:31.254Z,30.80
2018-12-17T03:09:31.243Z,32.50
2018-12-17T03:10:31.235Z,33.50
2018-12-17T03:11:31.223Z,33.00
2018-12-17T03:12:31.218Z,33.70
2018-12-17T03:13:31.218Z,31.80
2018-12-17T03:14:31.213Z,28.10
2018-12-17T03:15:31.188Z,32.20
2018-12-17T03:16:31.177Z,28.60
2018-12-17T03:17:31.165Z,29.90
2018-12-17T03:18:31.158Z,30.20
2018-12-17T03:19:31.172Z,31.60
2018-12-17T03:20:31.138Z,31.30
2018-12-17T03:21:31.135Z,28.20
2018-12-17T03:22:31.118Z,30.80
2018-12-17T03:23:31.107Z,31.60
2018-12-17T03:24:31.100Z,29.30
2018-12-17T03:25:31.108Z,29.80
2018-12-17T03:26:31.083Z,28.20
2018-12-17T03:27:31.084Z,29.10
2018-12-17T03:28:31.060Z,28.80
2018-12-17T03:29:31.057Z,28.40
2018-12-17T03:30:31.054Z,28.60
2018-12-17T03:31:31.029Z,27.50
2018-12-17T03:32:31.022Z,28.20
2018-12-17T03:33:31.009Z,26.40
2018-12-17T03:34:31.010Z,27.10
2018-12-17T03:35:30.994Z,29.90
2018-12-17T03:36:30.989Z,29.40
2018-12-17T03:37:30.971Z,28.30
2018-12-17T03:38:30.961Z,26.70
2018-12-17T03:39:30.955Z,28.30
2018-12-17T03:40:30.943Z,30.30
2018-12-17T03:41:30.932Z,27.40
2018-12-17T03:42:30.923Z,27.50
2018-12-17T03:43:30.913Z,28.30
2018-12-17T03:44:30.906Z,28.60
2018-12-17T03:45:30.897Z,27.10
2018-12-17T03:46:30.891Z,25.80
2018-12-17T03:47:30.877Z,25.70
2018-12-17T03:48:30.865Z,26.90
2018-12-17T03:49:30.856Z,29.20
2018-12-17T03:50:30.845Z,29.60
2018-12-17T03:51:30.855Z,29.20
2018-12-17T03:52:30.834Z,29.70
2018-12-17T03:53:30.815Z,27.50
2018-12-17T03:54:30.807Z,27.90
2018-12-17T03:55:30.806Z,28.10
2018-12-17T03:56:30.787Z,28.90
2018-12-17T03:57:30.789Z,28.80
2018-12-17T03:58:30.767Z,30.40
2018-12-17T03:59:30.754Z,26.90
2018-12-17T04:00:30.751Z,26.70
2018-12-17T04:01:30.736Z,27.90
2018-12-17T04:02:30.739Z,29.30
2018-12-17T04:03:30.727Z,28.10
2018-12-17T04:04:30.708Z,25.70
2018-12-17T04:05:30.695Z,26.80
2018-12-17T04:06:30.686Z,29.00
2018-12-17T04:07:30.940Z,26.60
2018-12-17T04:08:30.666Z,26.10
2018-12-17T04:09:30.659Z,27.30
2018-12-17T04:10:30.647Z,27.30
2018-12-17T04:11:30.634Z,25.50
2018-12-17T04:12:30.626Z,26.20
2018-12-17T04:13:30.615Z,27.00
2018-12-17T04:14:30.605Z,25.60
2018-12-17T04:15:30.592Z,28.40
2018-12-17T04:16:30.593Z,28.00
2018-12-17T04:17:30.573Z,26.20
2018-12-17T04:18:30.564Z,26.30
2018-12-17T04:19:30.573Z,25.70
2018-12-17T04:20:30.544Z,26.60
2018-12-17T04:21:30.532Z,27.50
2018-12-17T04:22:30.530Z,25.70
2018-12-17T04:23:30.528Z,26.80
2018-12-17T04:24:30.503Z,26.40
2018-12-17T04:25:30.492Z,25.90
2018-12-17T04:26:30.490Z,27.40
2018-12-17T04:27:30.471Z,25.30
2018-12-17T04:28:30.472Z,26.00
2018-12-17T04:29:30.469Z,28.10
2018-12-17T04:30:30.443Z,24.30
2018-12-17T04:31:30.441Z,25.30
2018-12-17T04:32:30.433Z,25.20
2018-12-17T04:33:30.425Z,26.30
2018-12-17T04:34:30.421Z,26.20
2018-12-17T04:35:30.392Z,24.80
2018-12-17T04:36:30.382Z,25.20
2018-12-17T04:37:30.379Z,26.30
2018-12-17T04:38:30.369Z,27.00
2018-12-17T04:39:30.350Z,24.30
2018-12-17T04:40:30.344Z,23.50
2018-12-17T04:41:30.331Z,24.70
2018-12-17T04:42:30.323Z,25.90
2018-12-17T04:43:30.313Z,23.20
2018-12-17T04:44:30.316Z,25.00
2018-12-17T04:45:30.303Z,25.50
2018-12-17T04:46:30.293Z,25.50
2018-12-17T04:47:30.272Z,24.10
2018-12-17T04:48:30.268Z,24.80
2018-12-17T04:49:30.252Z,26.50
2018-12-17T04:50:30.252Z,25.00
2018-12-17T04:51:30.239Z,25.00
2018-12-17T04:52:30.245Z,24.90
2018-12-17T04:53:30.213Z,23.40
2018-12-17T04:54:30.204Z,23.90
2018-12-17T04:55:30.208Z,23.20
2018-12-17T04:56:30.185Z,24.70
2018-12-17T04:57:30.180Z,23.70
2018-12-17T04:58:30.167Z,23.90
2018-12-17T04:59:30.155Z,25.20
2018-12-17T05:00:30.147Z,23.60
2018-12-17T05:01:30.136Z,24.30
2018-12-17T05:02:30.134Z,24.30
2018-12-17T05:03:30.114Z,22.70
2018-12-17T05:04:30.106Z,24.40
2018-12-17T05:05:30.095Z,24.60
2018-12-17T05:06:30.087Z,24.30
2018-12-17T05:07:30.075Z,23.70
2018-12-17T05:08:30.069Z,24.30
2018-12-17T05:09:30.065Z,22.80
2018-12-17T05:10:30.047Z,24.70
2018-12-17T05:11:30.037Z,21.70
2018-12-17T05:12:30.028Z,22.90
2018-12-17T05:13:30.018Z,24.80
2018-12-17T05:14:30.009Z,25.10
2018-12-17T05:15:29.999Z,21.60
2018-12-17T05:16:29.988Z,24.20
2018-12-17T05:17:29.984Z,25.40
2018-12-17T05:18:29.968Z,23.50
2018-12-17T05:19:29.958Z,26.60
2018-12-17T05:20:29.953Z,25.10
2018-12-17T05:21:29.937Z,24.50
2018-12-17T05:22:29.966Z,24.20
2018-12-17T05:23:29.923Z,23.40
2018-12-17T05:24:29.912Z,22.60
2018-12-17T05:25:29.899Z,23.60
2018-12-17T05:26:29.891Z,23.40
2018-12-17T05:27:29.883Z,22.50
2018-12-17T05:28:29.883Z,21.20
2018-12-17T05:29:29.859Z,22.20
2018-12-17T05:30:29.852Z,23.70
2018-12-17T05:31:29.840Z,23.80
2018-12-17T05:32:31.384Z,22.00
2018-12-17T05:33:29.820Z,21.70
2018-12-17T05:34:29.812Z,21.70
2018-12-17T05:35:29.809Z,22.60
2018-12-17T05:36:29.793Z,23.10
2018-12-17T05:37:29.785Z,21.40
2018-12-17T05:38:29.773Z,22.30
2018-12-17T05:39:29.760Z,22.20
2018-12-17T05:40:29.753Z,24.10
2018-12-17T05:41:29.741Z,23.00
2018-12-17T05:42:29.733Z,20.60
2018-12-17T05:43:29.722Z,23.20
2018-12-17T05:44:29.727Z,23.30
2018-12-17T05:45:29.708Z,21.80
2018-12-17T05:46:29.694Z,23.30
2018-12-17T05:47:29.682Z,22.80
2018-12-17T05:48:29.675Z,21.20
2018-12-17T05:49:29.664Z,23.50
2018-12-17T05:50:29.655Z,21.10
2018-12-17T05:51:29.645Z,22.90
2018-12-17T05:52:29.664Z,23.30
2018-12-17T05:53:29.624Z,22.60
2018-12-17T05:54:29.616Z,22.60
2018-12-17T05:55:29.606Z,23.40
2018-12-17T05:56:29.600Z,22.70
2018-12-17T05:57:29.590Z,21.50
2018-12-17T05:58:29.578Z,21.30
2018-12-17T05:59:29.571Z,19.20
2018-12-17T06:00:29.558Z,20.60
2018-12-17T06:01:29.546Z,18.20
2018-12-17T06:02:29.538Z,21.50
2018-12-17T06:03:29.526Z,23.40
2018-12-17T06:04:29.521Z,22.30
2018-12-17T06:05:29.507Z,19.80
2018-12-17T06:06:29.499Z,20.00
2018-12-17T06:07:29.487Z,18.70
2018-12-17T06:08:29.480Z,19.60
2018-12-17T06:09:29.469Z,21.20
2018-12-17T06:10:29.461Z,21.20
2018-12-17T06:11:29.449Z,19.30
2018-12-17T06:12:29.442Z,20.90
2018-12-17T06:13:29.429Z,20.60
2018-12-17T06:14:29.423Z,20.40
2018-12-17T06:15:29.409Z,20.20
2018-12-17T06:16:29.415Z,19.60
2018-12-17T06:17:29.391Z,20.10
2018-12-17T06:18:29.382Z,20.30
2018-12-17T06:19:29.370Z,19.40
2018-12-17T06:20:29.365Z,18.10
2018-12-17T06:21:29.351Z,18.60
2018-12-17T06:22:29.343Z,20.40
2018-12-17T06:23:29.336Z,18.40
2018-12-17T06:24:29.341Z,19.10
2018-12-17T06:25:29.313Z,21.40
2018-12-17T06:26:29.305Z,18.70
2018-12-17T06:27:29.294Z,19.20
2018-12-17T06:28:29.355Z,18.60
2018-12-17T06:29:35.399Z,19.10
2018-12-17T06:30:29.265Z,19.40
2018-12-17T06:31:29.253Z,18.50
2018-12-17T06:32:29.246Z,21.20
2018-12-17T06:33:29.234Z,19.50
2018-12-17T06:34:29.226Z,21.70
2018-12-17T06:35:29.214Z,18.70
2018-12-17T06:36:29.208Z,18.80
2018-12-17T06:37:29.198Z,18.80
2018-12-17T06:38:29.184Z,21.30
2018-12-17T06:39:29.178Z,19.20
2018-12-17T06:40:29.166Z,18.70
2018-12-17T06:41:29.159Z,20.00
2018-12-17T06:42:29.146Z,17.40
2018-12-17T06:43:29.138Z,18.30
2018-12-17T06:44:29.127Z,16.90
2018-12-17T06:45:29.120Z,22.10
2018-12-17T06:46:29.107Z,18.20
2018-12-17T06:47:29.100Z,19.70
2018-12-17T06:48:29.091Z,18.00
2018-12-17T06:49:29.081Z,19.70
2018-12-17T06:50:29.070Z,18.10
2018-12-17T06:51:29.060Z,17.10
2018-12-17T06:52:29.049Z,18.90
2018-12-17T06:53:29.042Z,17.60
2018-12-17T06:54:29.029Z,18.90
2018-12-17T06:55:29.022Z,17.60
2018-12-17T06:56:29.013Z,16.30
2018-12-17T06:57:29.079Z,17.00
2018-12-17T06:58:28.990Z,17.20
2018-12-17T06:59:28.982Z,15.80
2018-12-17T07:00:28.971Z,16.60
2018-12-17T07:01:28.964Z,17.10
2018-12-17T07:02:28.951Z,16.20
2018-12-17T07:03:28.943Z,15.70
2018-12-17T07:04:28.932Z,17.60
2018-12-17T07:05:28.924Z,16.20
2018-12-17T07:06:28.911Z,17.20
2018-12-17T07:07:28.904Z,14.20
2018-12-17T07:08:28.896Z,13.80
2018-12-17T07:09:28.886Z,14.90
2018-12-17T07:10:28.901Z,14.90
2018-12-17T07:11:28.867Z,15.50
2018-12-17T07:12:28.854Z,16.20
2018-12-17T07:13:28.846Z,15.60
2018-12-17T07:14:28.835Z,16.40
2018-12-17T07:15:28.828Z,15.00
2018-12-17T07:16:28.820Z,18.50
2018-12-17T07:17:28.809Z,17.10
2018-12-17T07:18:28.796Z,16.10
2018-12-17T07:19:28.789Z,16.40
2018-12-17T07:20:28.777Z,16.40
2018-12-17T07:21:28.772Z,16.80
2018-12-17T07:22:28.759Z,17.60
2018-12-17T07:23:28.750Z,16.90
2018-12-17T07:24:28.739Z,19.40
2018-12-17T07:25:28.732Z,18.00
2018-12-17T07:26:28.916Z,17.50
2018-12-17T07:27:28.711Z,19.80
2018-12-17T07:28:28.699Z,18.40
2018-12-17T07:29:28.693Z,17.50
2018-12-17T07:30:28.682Z,19.20
2018-12-17T07:31:28.673Z,17.80
2018-12-17T07:32:28.661Z,14.50
2018-12-17T07:33:28.654Z,17.10
2018-12-17T07:34:28.640Z,19.80
2018-12-17T07:35:28.633Z,17.40
2018-12-17T07:36:28.622Z,15.00
2018-12-17T07:37:28.868Z,16.60
2018-12-17T07:38:28.600Z,17.10
2018-12-17T07:39:28.593Z,17.30
2018-12-17T07:40:28.582Z,16.50
2018-12-17T07:41:28.573Z,16.40
2018-12-17T07:42:28.563Z,17.00
2018-12-17T07:43:28.553Z,17.10
2018-12-17T07:44:28.577Z,18.30
2018-12-17T07:45:28.534Z,17.80
2018-12-17T07:46:28.524Z,18.70
2018-12-17T07:47:28.514Z,21.10
2018-12-17T07:48:28.501Z,18.60
2018-12-17T07:49:28.494Z,18.90
2018-12-17T07:50:28.488Z,18.00
2018-12-17T07:51:28.473Z,19.50
2018-12-17T07:52:28.463Z,18.00
2018-12-17T07:53:28.454Z,18.40
2018-12-17T07:54:28.442Z,16.00
2018-12-17T07:55:28.502Z,18.70
2018-12-17T07:56:28.422Z,16.60
2018-12-17T07:57:28.416Z,16.90
2018-12-17T07:58:28.402Z,18.10
2018-12-17T07:59:28.393Z,16.10
2018-12-17T08:00:28.400Z,18.70
2018-12-17T08:01:28.388Z,15.80
2018-12-17T08:02:28.362Z,16.40
2018-12-17T08:03:28.354Z,15.60
2018-12-17T08:04:28.340Z,16.60
2018-12-17T08:05:28.333Z,18.30
2018-12-17T08:06:28.319Z,16.40
2018-12-17T08:07:28.314Z,16.40
2018-12-17T08:08:35.138Z,14.30
2018-12-17T08:09:28.292Z,17.40
2018-12-17T08:10:28.279Z,18.20
2018-12-17T08:11:28.271Z,18.70
2018-12-17T08:12:28.262Z,16.10
2018-12-17T08:13:28.252Z,16.20
2018-12-17T08:14:28.239Z,16.90
2018-12-17T08:15:28.231Z,16.80
2018-12-17T08:16:28.224Z,16.60
2018-12-17T08:17:28.219Z,15.80
2018-12-17T08:18:28.202Z,18.30
2018-12-17T08:19:29.024Z,16.80
2018-12-17T08:20:28.179Z,17.70
2018-12-17T08:21:28.172Z,15.60
2018-12-17T08:22:28.158Z,18.80
2018-12-17T08:23:28.151Z,18.20
2018-12-17T08:24:28.654Z,17.70
2018-12-17T08:25:28.130Z,16.50
2018-12-17T08:26:28.117Z,15.30
2018-12-17T08:27:28.110Z,16.90
2018-12-17T08:28:28.100Z,16.40
2018-12-17T08:29:28.094Z,15.00
2018-12-17T08:30:28.079Z,19.10
2018-12-17T08:31:28.072Z,16.30
2018-12-17T08:32:28.066Z,16.70
2018-12-17T08:33:28.051Z,16.70
2018-12-17T08:34:28.040Z,16.80
2018-12-17T08:35:28.029Z,17.50
2018-12-17T08:36:28.017Z,14.70
2018-12-17T08:37:28.010Z,18.00
2018-12-17T08:38:27.997Z,16.90
2018-12-17T08:39:27.990Z,16.20
2018-12-17T08:40:27.998Z,19.80
2018-12-17T08:41:27.972Z,14.30
2018-12-17T08:42:27.958Z,15.00
2018-12-17T08:43:27.950Z,15.40
2018-12-17T08:44:27.938Z,17.40
2018-12-17T08:45:27.932Z,15.10
2018-12-17T08:46:27.925Z,14.10
2018-12-17T08:47:27.912Z,16.20
2018-12-17T08:48:27.913Z,15.40
2018-12-17T08:49:27.891Z,17.30
2018-12-17T08:50:27.878Z,14.80
2018-12-17T08:51:27.872Z,15.80
2018-12-17T08:52:27.859Z,14.20
2018-12-17T08:53:27.852Z,14.10
2018-12-17T08:54:27.843Z,16.90
2018-12-17T08:55:27.832Z,13.90
2018-12-17T08:56:27.827Z,17.20
2018-12-17T08:57:27.813Z,12.50
2018-12-17T08:58:27.801Z,13.70
2018-12-17T08:59:27.793Z,15.10
2018-12-17T09:00:27.781Z,14.20
2018-12-17T09:01:27.774Z,15.60
2018-12-17T09:02:27.762Z,14.40
2018-12-17T09:03:27.755Z,16.00
2018-12-17T09:04:27.757Z,16.60
2018-12-17T09:05:27.736Z,15.20
2018-12-17T09:06:27.723Z,14.60
2018-12-17T09:07:27.716Z,14.80
2018-12-17T09:08:27.710Z,15.20
2018-12-17T09:09:27.699Z,14.70
2018-12-17T09:10:27.687Z,13.20
2018-12-17T09:11:27.680Z,16.00
2018-12-17T09:12:27.690Z,14.10
2018-12-17T09:13:27.662Z,14.70
2018-12-17T09:14:27.649Z,12.50
2018-12-17T09:15:27.642Z,13.80
2018-12-17T09:16:27.630Z,14.20
2018-12-17T09:17:27.623Z,14.90
2018-12-17T09:18:27.614Z,14.60
2018-12-17T09:19:27.606Z,14.20
2018-12-17T09:20:28.004Z,15.30
2018-12-17T09:21:27.595Z,17.20
2018-12-17T09:22:27.576Z,13.60
2018-12-17T09:23:27.567Z,12.70
2018-12-17T09:24:27.556Z,14.00
2018-12-17T09:25:27.554Z,17.00
2018-12-17T09:26:27.541Z,14.30
2018-12-17T09:27:27.545Z,16.30
2018-12-17T09:28:27.530Z,14.50
2018-12-17T09:29:27.511Z,16.90
2018-12-17T09:30:27.499Z,14.60
2018-12-17T09:31:27.492Z,13.20
2018-12-17T09:32:27.485Z,14.30
2018-12-17T09:33:28.734Z,14.50
2018-12-17T09:34:27.463Z,13.00
2018-12-17T09:35:27.455Z,13.60
2018-12-17T09:36:27.695Z,14.60
2018-12-17T09:37:27.511Z,12.80
2018-12-17T09:38:27.503Z,16.30
2018-12-17T09:39:27.419Z,15.80
2018-12-17T09:40:27.407Z,14.60
2018-12-17T09:41:27.400Z,12.30
2018-12-17T09:42:27.389Z,14.30
2018-12-17T09:43:27.381Z,14.80
2018-12-17T09:44:27.386Z,18.40
2018-12-17T09:45:27.364Z,14.30
2018-12-17T09:46:27.352Z,16.10
2018-12-17T09:47:27.346Z,14.70
2018-12-17T09:48:27.337Z,15.80
2018-12-17T09:49:27.328Z,13.10
2018-12-17T09:50:27.315Z,13.20
2018-12-17T09:51:27.309Z,12.40
2018-12-17T09:52:27.639Z,14.50
2018-12-17T09:53:27.293Z,16.50
2018-12-17T09:54:27.282Z,15.00
2018-12-17T09:55:27.273Z,14.40
2018-12-17T09:56:27.262Z,14.20
2018-12-17T09:57:27.255Z,14.20
2018-12-17T09:58:27.245Z,15.90
2018-12-17T09:59:27.237Z,14.50
2018-12-17T10:00:27.352Z,8.90
2018-12-17T10:01:27.218Z,15.60
2018-12-17T10:02:27.206Z,15.60
2018-12-17T10:03:27.199Z,12.40
2018-12-17T10:04:27.188Z,13.60
2018-12-17T10:05:27.181Z,16.40
2018-12-17T10:06:27.169Z,15.00
2018-12-17T10:07:30.477Z,16.60
2018-12-17T10:08:27.630Z,18.90
2018-12-17T10:09:27.145Z,17.20
2018-12-17T10:10:27.133Z,15.70
2018-12-17T10:11:27.126Z,16.20
2018-12-17T10:12:27.115Z,15.30
2018-12-17T10:13:27.108Z,13.70
2018-12-17T10:14:27.096Z,14.90
2018-12-17T10:15:27.089Z,15.70
2018-12-17T10:16:28.404Z,14.10
2018-12-17T10:17:27.072Z,16.60
2018-12-17T10:18:27.060Z,16.50
2018-12-17T10:19:27.052Z,15.90
2018-12-17T10:20:27.043Z,19.10
2018-12-17T10:21:27.035Z,15.70
2018-12-17T10:22:27.023Z,14.70
2018-12-17T10:23:27.017Z,14.70
2018-12-17T10:24:27.284Z,14.00
2018-12-17T10:25:26.999Z,15.00
2018-12-17T10:26:26.987Z,14.40
2018-12-17T10:27:26.980Z,14.80
2018-12-17T10:28:26.970Z,15.90
2018-12-17T10:29:26.961Z,15.50
2018-12-17T10:30:32.535Z,14.80
2018-12-17T10:31:26.943Z,13.90
2018-12-17T10:32:26.932Z,14.60
2018-12-17T10:33:26.925Z,15.50
2018-12-17T10:34:26.914Z,17.10
2018-12-17T10:35:26.906Z,15.50
2018-12-17T10:36:26.900Z,13.60
2018-12-17T10:37:26.889Z,15.40
2018-12-17T10:38:26.877Z,13.40
2018-12-17T10:39:26.871Z,17.60
2018-12-17T10:40:26.859Z,13.80
2018-12-17T10:41:26.854Z,15.40
2018-12-17T10:42:26.842Z,16.70
2018-12-17T10:43:26.833Z,15.00
2018-12-17T10:44:28.046Z,14.80
2018-12-17T10:45:26.820Z,14.30
2018-12-17T10:46:26.803Z,17.90
2018-12-17T10:47:26.797Z,18.00
2018-12-17T10:48:26.788Z,15.30
2018-12-17T10:49:26.782Z,18.90
2018-12-17T10:50:26.767Z,19.00
2018-12-17T10:51:26.761Z,16.30
2018-12-17T10:52:26.795Z,14.40
2018-12-17T10:53:26.743Z,17.00
2018-12-17T10:54:26.733Z,16.20
2018-12-17T10:55:26.723Z,15.80
2018-12-17T10:56:26.718Z,16.20
2018-12-17T10:57:26.711Z,17.60
2018-12-17T10:58:26.698Z,17.90
2018-12-17T10:59:26.687Z,17.60
2018-12-17T11:00:26.682Z,15.80
2018-12-17T11:01:26.670Z,16.80
2018-12-17T11:02:26.662Z,13.60
2018-12-17T11:03:26.653Z,16.10
2018-12-17T11:04:26.651Z,17.10
2018-12-17T11:05:26.651Z,18.20
2018-12-17T11:06:26.627Z,15.20
2018-12-17T11:07:26.625Z,17.40
2018-12-17T11:08:26.611Z,16.20
2018-12-17T11:09:26.600Z,15.90
2018-12-17T11:10:26.656Z,16.70
2018-12-17T11:11:26.594Z,14.70
2018-12-17T11:12:26.581Z,15.40
2018-12-17T11:13:26.565Z,15.00
2018-12-17T11:14:26.557Z,15.60
2018-12-17T11:15:26.547Z,15.90
2018-12-17T11:16:26.541Z,14.00
2018-12-17T11:17:26.530Z,15.60
2018-12-17T11:18:26.523Z,16.60
2018-12-17T11:19:26.512Z,17.10
2018-12-17T11:20:26.507Z,18.20
2018-12-17T11:21:26.494Z,18.30
2018-12-17T11:22:26.487Z,15.80
2018-12-17T11:23:26.476Z,17.20
2018-12-17T11:24:26.471Z,17.30
2018-12-17T11:25:26.460Z,17.40
2018-12-17T11:26:26.452Z,13.80
2018-12-17T11:27:26.442Z,16.00
2018-12-17T11:28:26.436Z,15.70
2018-12-17T11:29:26.433Z,18.00
2018-12-17T11:30:26.419Z,17.10
2018-12-17T11:31:26.410Z,16.00
2018-12-17T11:32:26.401Z,17.30
2018-12-17T11:33:26.392Z,15.70
2018-12-17T11:34:26.391Z,17.50
2018-12-17T11:35:26.374Z,17.10
2018-12-17T11:36:26.374Z,17.30
2018-12-17T11:37:26.358Z,16.50
2018-12-17T11:38:26.351Z,16.30
2018-12-17T11:39:26.340Z,17.20
2018-12-17T11:40:26.333Z,15.20
2018-12-17T11:41:26.323Z,16.30
2018-12-17T11:42:26.316Z,17.50
2018-12-17T11:43:26.307Z,15.80
2018-12-17T11:44:26.300Z,15.80
2018-12-17T11:45:26.290Z,15.60
2018-12-17T11:46:26.283Z,15.00
2018-12-17T11:47:26.273Z,14.40
2018-12-17T11:48:26.267Z,17.20
2018-12-17T11:49:26.257Z,15.40
2018-12-17T11:50:26.250Z,19.40
2018-12-17T11:51:26.239Z,15.00
2018-12-17T11:52:26.233Z,15.00
2018-12-17T11:53:26.223Z,17.50
2018-12-17T11:54:26.216Z,15.10
2018-12-17T11:55:26.207Z,17.80
2018-12-17T11:56:26.202Z,15.90
2018-12-17T11:57:26.191Z,15.50
2018-12-17T11:58:26.184Z,17.60
2018-12-17T11:59:26.175Z,16.20
2018-12-17T12:00:26.176Z,16.20
2018-12-17T12:01:26.158Z,14.90
2018-12-17T12:02:26.151Z,15.20
2018-12-17T12:03:26.140Z,15.60
2018-12-17T12:04:26.136Z,17.70
2018-12-17T12:05:26.125Z,15.80
2018-12-17T12:06:26.117Z,19.40
2018-12-17T12:07:26.108Z,16.40
2018-12-17T12:08:26.103Z,16.20
2018-12-17T12:09:26.095Z,19.30
2018-12-17T12:10:26.090Z,17.20
2018-12-17T12:11:26.074Z,19.20
2018-12-17T12:12:26.069Z,19.00
2018-12-17T12:13:26.059Z,19.40
2018-12-17T12:14:26.679Z,18.90
2018-12-17T12:15:26.041Z,18.70
2018-12-17T12:16:26.035Z,21.10
2018-12-17T12:17:26.026Z,21.50
2018-12-17T12:18:26.018Z,19.90
2018-12-17T12:19:26.008Z,21.60
2018-12-17T12:20:26.002Z,22.20
2018-12-17T12:21:25.995Z,21.50
2018-12-17T12:22:25.985Z,20.60
2018-12-17T12:23:25.977Z,22.90
2018-12-17T12:24:25.972Z,22.40
2018-12-17T12:25:25.959Z,22.50
2018-12-17T12:26:25.954Z,23.00
2018-12-17T12:27:25.942Z,24.90
2018-12-17T12:28:25.936Z,21.70
2018-12-17T12:29:25.930Z,24.90
2018-12-17T12:30:25.923Z,26.10
2018-12-17T12:31:25.910Z,24.00
2018-12-17T12:32:25.903Z,25.40
2018-12-17T12:33:25.892Z,26.50
2018-12-17T12:34:25.886Z,25.70
2018-12-17T12:35:25.877Z,23.60
2018-12-17T12:36:25.870Z,24.10
2018-12-17T12:37:25.859Z,25.30
2018-12-17T12:38:25.858Z,27.40
2018-12-17T12:39:25.843Z,28.30
2018-12-17T12:40:25.837Z,26.80
2018-12-17T12:41:25.827Z,26.40
2018-12-17T12:42:25.821Z,27.50
2018-12-17T12:43:25.811Z,30.40
2018-12-17T12:44:25.804Z,27.20
2018-12-17T12:45:25.793Z,28.40
2018-12-17T12:46:25.789Z,29.30
2018-12-17T12:47:25.777Z,30.20
2018-12-17T12:48:25.774Z,31.10
2018-12-17T12:49:25.767Z,30.40
2018-12-17T12:50:25.772Z,30.30
2018-12-17T12:51:32.439Z,28.30
2018-12-17T12:52:25.739Z,29.20